sensor_id;sensor_type;location;lat;lon;timestamp;P1;durP1;ratioP1;P2;durP2;ratioP2
70467;SDS011;57934;51.532;7.684;2022-08-01T00:00:29;27.10;;;19.60;;
70467;SDS011;57934;51.532;7.684;2022-08-01T00:02:55;24.73;;;19.08;;
70467;SDS011;57934;51.532;7.684;2022-08-01T00:05:21;28.08;;;21.80;;
70467;SDS011;57934;51.532;7.684;2022-08-01T00:07:47;25.83;;;20.17;;
70467;SDS011;57934;51.532;7.684;2022-08-01T00:10:14;26.88;;;20.40;;
70467;SDS011;57934;51.532;7.684;2022-08-01T00:12:41;26.48;;;20.08;;
70467;SDS011;57934;51.532;7.684;2022-08-01T00:15:09;24.90;;;20.20;;
70467;SDS011;57934;51.532;7.684;2022-08-01T00:17:36;29.17;;;21.02;;
70467;SDS011;57934;51.532;7.684;2022-08-01T00:20:04;29.08;;;22.33;;
70467;SDS011;57934;51.532;7.684;2022-08-01T00:22:33;23.27;;;20.80;;
70467;SDS011;57934;51.532;7.684;2022-08-01T00:24:59;24.00;;;21.42;;
70467;SDS011;57934;51.532;7.684;2022-08-01T00:27:26;26.98;;;22.58;;
70467;SDS011;57934;51.532;7.684;2022-08-01T00:29:52;26.83;;;23.83;;
70467;SDS011;57934;51.532;7.684;2022-08-01T00:32:18;26.27;;;23.67;;
70467;SDS011;57934;51.532;7.684;2022-08-01T00:34:44;28.63;;;25.52;;
70467;SDS011;57934;51.532;7.684;2022-08-01T00:37:10;27.80;;;23.92;;
70467;SDS011;57934;51.532;7.684;2022-08-01T00:39:36;30.52;;;27.40;;
70467;SDS011;57934;51.532;7.684;2022-08-01T00:42:06;29.85;;;26.65;;
70467;SDS011;57934;51.532;7.684;2022-08-01T00:44:33;32.85;;;28.58;;
70467;SDS011;57934;51.532;7.684;2022-08-01T00:46:59;33.47;;;29.88;;
70467;SDS011;57934;51.532;7.684;2022-08-01T00:49:26;34.75;;;30.98;;
70467;SDS011;57934;51.532;7.684;2022-08-01T00:51:52;33.42;;;29.88;;
70467;SDS011;57934;51.532;7.684;2022-08-01T00:54:18;34.17;;;30.52;;
70467;SDS011;57934;51.532;7.684;2022-08-01T00:56:44;37.10;;;31.60;;
70467;SDS011;57934;51.532;7.684;2022-08-01T00:59:11;37.10;;;32.90;;
70467;SDS011;57934;51.532;7.684;2022-08-01T01:01:39;37.63;;;33.53;;
70467;SDS011;57934;51.532;7.684;2022-08-01T01:04:05;39.10;;;34.97;;
70467;SDS011;57934;51.532;7.684;2022-08-01T01:09:11;45.13;;;38.10;;
70467;SDS011;57934;51.532;7.684;2022-08-01T01:11:49;45.92;;;38.13;;
70467;SDS011;57934;51.532;7.684;2022-08-01T01:17:35;52.40;;;41.50;;
70467;SDS011;57934;51.532;7.684;2022-08-01T01:20:07;54.85;;;43.88;;
70467;SDS011;57934;51.532;7.684;2022-08-01T01:22:54;58.00;;;46.33;;
70467;SDS011;57934;51.532;7.684;2022-08-01T01:30:49;63.17;;;46.92;;
70467;SDS011;57934;51.532;7.684;2022-08-01T01:33:19;62.60;;;45.75;;
70467;SDS011;57934;51.532;7.684;2022-08-01T01:35:48;67.07;;;47.55;;
70467;SDS011;57934;51.532;7.684;2022-08-01T01:38:21;65.30;;;47.55;;
70467;SDS011;57934;51.532;7.684;2022-08-01T01:40:52;68.90;;;48.65;;
70467;SDS011;57934;51.532;7.684;2022-08-01T01:43:19;64.47;;;48.10;;
70467;SDS011;57934;51.532;7.684;2022-08-01T01:45:47;68.60;;;50.00;;
70467;SDS011;57934;51.532;7.684;2022-08-01T01:48:14;72.43;;;49.53;;
70467;SDS011;57934;51.532;7.684;2022-08-01T01:50:44;75.85;;;50.33;;
70467;SDS011;57934;51.532;7.684;2022-08-01T01:53:12;70.03;;;49.70;;
70467;SDS011;57934;51.532;7.684;2022-08-01T01:55:41;74.65;;;49.58;;
70467;SDS011;57934;51.532;7.684;2022-08-01T01:58:11;67.38;;;47.95;;
70467;SDS011;57934;51.532;7.684;2022-08-01T02:00:40;62.53;;;45.35;;
70467;SDS011;57934;51.532;7.684;2022-08-01T02:03:08;64.72;;;45.60;;
70467;SDS011;57934;51.532;7.684;2022-08-01T02:05:37;69.22;;;47.45;;
70467;SDS011;57934;51.532;7.684;2022-08-01T02:08:05;65.22;;;46.25;;
70467;SDS011;57934;51.532;7.684;2022-08-01T02:10:32;64.13;;;45.22;;
70467;SDS011;57934;51.532;7.684;2022-08-01T02:13:01;67.43;;;44.85;;
70467;SDS011;57934;51.532;7.684;2022-08-01T02:15:29;61.13;;;43.00;;
70467;SDS011;57934;51.532;7.684;2022-08-01T02:17:57;67.50;;;43.70;;
70467;SDS011;57934;51.532;7.684;2022-08-01T02:20:26;72.10;;;46.58;;
70467;SDS011;57934;51.532;7.684;2022-08-01T02:23:01;75.90;;;46.47;;
70467;SDS011;57934;51.532;7.684;2022-08-01T02:25:44;70.78;;;45.95;;
70467;SDS011;57934;51.532;7.684;2022-08-01T02:28:15;71.40;;;45.60;;
70467;SDS011;57934;51.532;7.684;2022-08-01T02:33:16;70.75;;;45.33;;
70467;SDS011;57934;51.532;7.684;2022-08-01T02:35:46;70.55;;;44.13;;
70467;SDS011;57934;51.532;7.684;2022-08-01T02:38:15;70.57;;;45.22;;
70467;SDS011;57934;51.532;7.684;2022-08-01T02:40:45;66.30;;;45.33;;
70467;SDS011;57934;51.532;7.684;2022-08-01T02:43:13;74.25;;;46.65;;
70467;SDS011;57934;51.532;7.684;2022-08-01T02:45:45;67.47;;;45.28;;
70467;SDS011;57934;51.532;7.684;2022-08-01T02:48:15;71.03;;;45.15;;
70467;SDS011;57934;51.532;7.684;2022-08-01T02:50:44;73.78;;;46.58;;
70467;SDS011;57934;51.532;7.684;2022-08-01T02:53:13;70.90;;;45.78;;
70467;SDS011;57934;51.532;7.684;2022-08-01T02:55:42;68.85;;;44.10;;
70467;SDS011;57934;51.532;7.684;2022-08-01T02:58:14;63.00;;;42.70;;
70467;SDS011;57934;51.532;7.684;2022-08-01T03:00:42;68.38;;;41.88;;
70467;SDS011;57934;51.532;7.684;2022-08-01T03:03:10;62.90;;;40.92;;
70467;SDS011;57934;51.532;7.684;2022-08-01T03:05:38;59.42;;;41.17;;
70467;SDS011;57934;51.532;7.684;2022-08-01T03:08:06;64.93;;;42.22;;
70467;SDS011;57934;51.532;7.684;2022-08-01T03:10:35;61.10;;;39.83;;
70467;SDS011;57934;51.532;7.684;2022-08-01T03:13:04;57.63;;;39.45;;
70467;SDS011;57934;51.532;7.684;2022-08-01T03:15:33;53.65;;;36.40;;
70467;SDS011;57934;51.532;7.684;2022-08-01T03:18:02;53.90;;;36.53;;
70467;SDS011;57934;51.532;7.684;2022-08-01T03:20:29;47.80;;;36.97;;
70467;SDS011;57934;51.532;7.684;2022-08-01T03:22:58;54.25;;;37.35;;
70467;SDS011;57934;51.532;7.684;2022-08-01T03:25:27;50.60;;;36.58;;
70467;SDS011;57934;51.532;7.684;2022-08-01T03:27:56;49.80;;;36.40;;
70467;SDS011;57934;51.532;7.684;2022-08-01T03:30:25;48.88;;;35.75;;
70467;SDS011;57934;51.532;7.684;2022-08-01T03:32:52;49.55;;;36.55;;
70467;SDS011;57934;51.532;7.684;2022-08-01T03:35:19;53.95;;;36.97;;
70467;SDS011;57934;51.532;7.684;2022-08-01T03:37:48;52.00;;;34.42;;
70467;SDS011;57934;51.532;7.684;2022-08-01T03:40:24;46.80;;;33.72;;
70467;SDS011;57934;51.532;7.684;2022-08-01T03:42:58;43.88;;;33.60;;
70467;SDS011;57934;51.532;7.684;2022-08-01T03:45:42;50.92;;;34.83;;
70467;SDS011;57934;51.532;7.684;2022-08-01T03:48:14;49.90;;;34.15;;
70467;SDS011;57934;51.532;7.684;2022-08-01T03:50:44;44.08;;;34.40;;
70467;SDS011;57934;51.532;7.684;2022-08-01T03:53:13;51.80;;;34.67;;
70467;SDS011;57934;51.532;7.684;2022-08-01T03:55:41;46.72;;;35.00;;
70467;SDS011;57934;51.532;7.684;2022-08-01T03:58:09;47.35;;;35.17;;
70467;SDS011;57934;51.532;7.684;2022-08-01T04:00:36;46.78;;;34.45;;
70467;SDS011;57934;51.532;7.684;2022-08-01T04:03:09;44.15;;;32.20;;
70467;SDS011;57934;51.532;7.684;2022-08-01T04:05:39;42.10;;;29.40;;
70467;SDS011;57934;51.532;7.684;2022-08-01T04:08:06;40.72;;;28.98;;
70467;SDS011;57934;51.532;7.684;2022-08-01T04:10:32;42.05;;;29.10;;
70467;SDS011;57934;51.532;7.684;2022-08-01T04:12:58;41.38;;;28.60;;
70467;SDS011;57934;51.532;7.684;2022-08-01T04:15:24;41.75;;;27.20;;
70467;SDS011;57934;51.532;7.684;2022-08-01T04:17:50;31.20;;;23.77;;
70467;SDS011;57934;51.532;7.684;2022-08-01T04:20:16;38.10;;;24.45;;
70467;SDS011;57934;51.532;7.684;2022-08-01T04:22:43;29.13;;;23.02;;
70467;SDS011;57934;51.532;7.684;2022-08-01T04:25:11;33.53;;;22.90;;
70467;SDS011;57934;51.532;7.684;2022-08-01T04:27:42;25.38;;;20.70;;
70467;SDS011;57934;51.532;7.684;2022-08-01T04:30:11;27.27;;;19.35;;
70467;SDS011;57934;51.532;7.684;2022-08-01T04:32:40;22.40;;;17.48;;
70467;SDS011;57934;51.532;7.684;2022-08-01T04:35:11;21.17;;;17.00;;
70467;SDS011;57934;51.532;7.684;2022-08-01T04:37:39;27.38;;;18.02;;
70467;SDS011;57934;51.532;7.684;2022-08-01T04:40:06;24.60;;;16.38;;
70467;SDS011;57934;51.532;7.684;2022-08-01T04:42:34;21.67;;;15.45;;
70467;SDS011;57934;51.532;7.684;2022-08-01T04:45:00;21.15;;;14.82;;
70467;SDS011;57934;51.532;7.684;2022-08-01T04:47:26;22.20;;;14.98;;
70467;SDS011;57934;51.532;7.684;2022-08-01T04:49:52;22.10;;;15.40;;
70467;SDS011;57934;51.532;7.684;2022-08-01T04:52:19;20.15;;;14.68;;
70467;SDS011;57934;51.532;7.684;2022-08-01T04:54:45;20.27;;;13.90;;
70467;SDS011;57934;51.532;7.684;2022-08-01T04:57:12;17.90;;;14.32;;
70467;SDS011;57934;51.532;7.684;2022-08-01T04:59:38;17.65;;;13.15;;
70467;SDS011;57934;51.532;7.684;2022-08-01T05:02:18;17.77;;;12.95;;
70467;SDS011;57934;51.532;7.684;2022-08-01T05:04:44;17.13;;;12.57;;
70467;SDS011;57934;51.532;7.684;2022-08-01T05:07:12;18.45;;;12.75;;
70467;SDS011;57934;51.532;7.684;2022-08-01T05:09:39;16.65;;;12.68;;
70467;SDS011;57934;51.532;7.684;2022-08-01T05:12:11;16.80;;;13.02;;
70467;SDS011;57934;51.532;7.684;2022-08-01T05:14:37;18.08;;;11.60;;
70467;SDS011;57934;51.532;7.684;2022-08-01T05:17:04;14.32;;;11.30;;
70467;SDS011;57934;51.532;7.684;2022-08-01T05:19:33;14.98;;;11.77;;
70467;SDS011;57934;51.532;7.684;2022-08-01T05:22:00;16.60;;;11.80;;
70467;SDS011;57934;51.532;7.684;2022-08-01T05:24:27;13.95;;;11.60;;
70467;SDS011;57934;51.532;7.684;2022-08-01T05:26:56;14.90;;;11.43;;
70467;SDS011;57934;51.532;7.684;2022-08-01T05:29:23;13.45;;;10.45;;
70467;SDS011;57934;51.532;7.684;2022-08-01T05:31:49;15.35;;;9.73;;
70467;SDS011;57934;51.532;7.684;2022-08-01T05:34:16;12.82;;;11.23;;
70467;SDS011;57934;51.532;7.684;2022-08-01T05:36:42;12.25;;;10.10;;
70467;SDS011;57934;51.532;7.684;2022-08-01T05:39:08;27.48;;;14.05;;
70467;SDS011;57934;51.532;7.684;2022-08-01T05:41:35;21.50;;;12.95;;
70467;SDS011;57934;51.532;7.684;2022-08-01T05:44:04;13.90;;;11.10;;
70467;SDS011;57934;51.532;7.684;2022-08-01T05:46:31;14.68;;;11.30;;
70467;SDS011;57934;51.532;7.684;2022-08-01T05:49:00;14.13;;;10.73;;
70467;SDS011;57934;51.532;7.684;2022-08-01T05:51:27;16.13;;;11.05;;
70467;SDS011;57934;51.532;7.684;2022-08-01T05:53:53;13.60;;;11.23;;
70467;SDS011;57934;51.532;7.684;2022-08-01T05:56:19;13.98;;;10.90;;
70467;SDS011;57934;51.532;7.684;2022-08-01T05:58:47;14.13;;;10.00;;
70467;SDS011;57934;51.532;7.684;2022-08-01T06:01:13;14.52;;;9.88;;
70467;SDS011;57934;51.532;7.684;2022-08-01T06:03:39;13.20;;;10.55;;
70467;SDS011;57934;51.532;7.684;2022-08-01T06:06:05;11.30;;;9.02;;
70467;SDS011;57934;51.532;7.684;2022-08-01T06:08:32;11.98;;;8.82;;
70467;SDS011;57934;51.532;7.684;2022-08-01T06:10:58;9.95;;;8.23;;
70467;SDS011;57934;51.532;7.684;2022-08-01T06:13:24;8.75;;;7.90;;
70467;SDS011;57934;51.532;7.684;2022-08-01T06:15:50;8.60;;;7.70;;
70467;SDS011;57934;51.532;7.684;2022-08-01T06:18:17;7.85;;;7.05;;
70467;SDS011;57934;51.532;7.684;2022-08-01T06:20:43;10.23;;;7.22;;
70467;SDS011;57934;51.532;7.684;2022-08-01T06:23:09;12.80;;;7.68;;
70467;SDS011;57934;51.532;7.684;2022-08-01T06:25:35;7.47;;;6.75;;
70467;SDS011;57934;51.532;7.684;2022-08-01T06:28:01;7.65;;;6.78;;
70467;SDS011;57934;51.532;7.684;2022-08-01T06:30:27;10.50;;;6.68;;
70467;SDS011;57934;51.532;7.684;2022-08-01T06:32:53;7.60;;;6.25;;
70467;SDS011;57934;51.532;7.684;2022-08-01T06:35:21;8.55;;;5.90;;
70467;SDS011;57934;51.532;7.684;2022-08-01T06:37:47;8.07;;;5.68;;
70467;SDS011;57934;51.532;7.684;2022-08-01T06:40:14;8.60;;;6.18;;
70467;SDS011;57934;51.532;7.684;2022-08-01T06:42:40;6.68;;;5.68;;
70467;SDS011;57934;51.532;7.684;2022-08-01T06:45:10;7.32;;;6.38;;
70467;SDS011;57934;51.532;7.684;2022-08-01T06:47:40;10.18;;;6.68;;
70467;SDS011;57934;51.532;7.684;2022-08-01T06:50:07;8.50;;;6.22;;
70467;SDS011;57934;51.532;7.684;2022-08-01T06:52:34;9.30;;;7.53;;
70467;SDS011;57934;51.532;7.684;2022-08-01T06:55:01;10.05;;;7.45;;
70467;SDS011;57934;51.532;7.684;2022-08-01T06:57:28;7.90;;;7.20;;
70467;SDS011;57934;51.532;7.684;2022-08-01T06:59:54;8.25;;;6.57;;
70467;SDS011;57934;51.532;7.684;2022-08-01T07:02:20;7.55;;;6.40;;
70467;SDS011;57934;51.532;7.684;2022-08-01T07:04:46;9.57;;;7.07;;
70467;SDS011;57934;51.532;7.684;2022-08-01T07:07:12;8.77;;;7.65;;
70467;SDS011;57934;51.532;7.684;2022-08-01T07:09:38;10.95;;;7.20;;
70467;SDS011;57934;51.532;7.684;2022-08-01T07:12:07;9.75;;;8.40;;
70467;SDS011;57934;51.532;7.684;2022-08-01T07:14:33;11.02;;;9.73;;
70467;SDS011;57934;51.532;7.684;2022-08-01T07:16:59;13.60;;;12.18;;
70467;SDS011;57934;51.532;7.684;2022-08-01T07:19:25;13.73;;;12.32;;
70467;SDS011;57934;51.532;7.684;2022-08-01T07:21:51;12.48;;;11.35;;
70467;SDS011;57934;51.532;7.684;2022-08-01T07:24:17;13.93;;;10.80;;
70467;SDS011;57934;51.532;7.684;2022-08-01T07:26:44;11.90;;;9.88;;
70467;SDS011;57934;51.532;7.684;2022-08-01T07:29:13;10.25;;;9.25;;
70467;SDS011;57934;51.532;7.684;2022-08-01T07:31:39;9.30;;;8.40;;
70467;SDS011;57934;51.532;7.684;2022-08-01T07:34:05;8.27;;;7.47;;
70467;SDS011;57934;51.532;7.684;2022-08-01T07:36:31;9.02;;;7.03;;
70467;SDS011;57934;51.532;7.684;2022-08-01T07:38:57;8.75;;;7.07;;
70467;SDS011;57934;51.532;7.684;2022-08-01T07:41:23;6.45;;;5.85;;
70467;SDS011;57934;51.532;7.684;2022-08-01T07:43:49;6.05;;;5.50;;
70467;SDS011;57934;51.532;7.684;2022-08-01T07:46:15;6.78;;;5.88;;
70467;SDS011;57934;51.532;7.684;2022-08-01T07:48:42;6.00;;;5.40;;
70467;SDS011;57934;51.532;7.684;2022-08-01T07:51:08;7.65;;;6.40;;
70467;SDS011;57934;51.532;7.684;2022-08-01T07:53:35;8.15;;;5.75;;
70467;SDS011;57934;51.532;7.684;2022-08-01T07:56:02;5.88;;;5.18;;
70467;SDS011;57934;51.532;7.684;2022-08-01T07:58:30;6.32;;;5.65;;
70467;SDS011;57934;51.532;7.684;2022-08-01T08:00:56;6.43;;;5.57;;
70467;SDS011;57934;51.532;7.684;2022-08-01T08:03:22;7.07;;;5.75;;
70467;SDS011;57934;51.532;7.684;2022-08-01T08:05:48;7.25;;;5.53;;
70467;SDS011;57934;51.532;7.684;2022-08-01T08:08:14;6.30;;;5.70;;
70467;SDS011;57934;51.532;7.684;2022-08-01T08:10:41;5.90;;;5.35;;
70467;SDS011;57934;51.532;7.684;2022-08-01T08:13:07;5.90;;;5.28;;
70467;SDS011;57934;51.532;7.684;2022-08-01T08:15:33;6.38;;;5.75;;
70467;SDS011;57934;51.532;7.684;2022-08-01T08:17:59;6.70;;;6.07;;
70467;SDS011;57934;51.532;7.684;2022-08-01T08:20:25;6.57;;;5.90;;
70467;SDS011;57934;51.532;7.684;2022-08-01T08:22:53;5.50;;;4.90;;
70467;SDS011;57934;51.532;7.684;2022-08-01T08:25:19;5.47;;;4.88;;
70467;SDS011;57934;51.532;7.684;2022-08-01T08:27:46;6.38;;;5.18;;
70467;SDS011;57934;51.532;7.684;2022-08-01T08:30:12;6.65;;;4.88;;
70467;SDS011;57934;51.532;7.684;2022-08-01T08:32:38;10.50;;;5.50;;
70467;SDS011;57934;51.532;7.684;2022-08-01T08:35:05;5.63;;;4.63;;
70467;SDS011;57934;51.532;7.684;2022-08-01T08:37:31;4.75;;;4.45;;
70467;SDS011;57934;51.532;7.684;2022-08-01T08:39:58;5.53;;;4.90;;
70467;SDS011;57934;51.532;7.684;2022-08-01T08:42:24;6.32;;;4.70;;
70467;SDS011;57934;51.532;7.684;2022-08-01T08:44:50;6.53;;;5.03;;
70467;SDS011;57934;51.532;7.684;2022-08-01T08:47:16;5.70;;;5.20;;
70467;SDS011;57934;51.532;7.684;2022-08-01T08:49:43;5.50;;;5.10;;
70467;SDS011;57934;51.532;7.684;2022-08-01T08:52:10;5.57;;;4.97;;
70467;SDS011;57934;51.532;7.684;2022-08-01T08:54:37;7.45;;;5.85;;
70467;SDS011;57934;51.532;7.684;2022-08-01T08:57:04;8.32;;;5.70;;
70467;SDS011;57934;51.532;7.684;2022-08-01T08:59:30;5.25;;;4.80;;
70467;SDS011;57934;51.532;7.684;2022-08-01T09:01:57;5.75;;;5.10;;
70467;SDS011;57934;51.532;7.684;2022-08-01T09:04:24;8.93;;;5.55;;
70467;SDS011;57934;51.532;7.684;2022-08-01T09:06:51;7.72;;;5.93;;
70467;SDS011;57934;51.532;7.684;2022-08-01T09:09:17;5.65;;;5.03;;
70467;SDS011;57934;51.532;7.684;2022-08-01T09:11:43;5.57;;;5.05;;
70467;SDS011;57934;51.532;7.684;2022-08-01T09:14:10;5.35;;;4.78;;
70467;SDS011;57934;51.532;7.684;2022-08-01T09:16:42;4.25;;;3.90;;
70467;SDS011;57934;51.532;7.684;2022-08-01T09:19:14;6.05;;;4.38;;
70467;SDS011;57934;51.532;7.684;2022-08-01T09:21:55;5.00;;;3.95;;
70467;SDS011;57934;51.532;7.684;2022-08-01T09:24:23;4.40;;;4.00;;
70467;SDS011;57934;51.532;7.684;2022-08-01T09:26:50;5.20;;;4.13;;
70467;SDS011;57934;51.532;7.684;2022-08-01T09:29:17;4.95;;;4.47;;
70467;SDS011;57934;51.532;7.684;2022-08-01T09:31:45;5.55;;;5.03;;
70467;SDS011;57934;51.532;7.684;2022-08-01T09:34:12;5.05;;;4.22;;
70467;SDS011;57934;51.532;7.684;2022-08-01T09:39:17;5.35;;;4.00;;
70467;SDS011;57934;51.532;7.684;2022-08-01T09:41:45;4.38;;;4.07;;
70467;SDS011;57934;51.532;7.684;2022-08-01T09:44:12;3.60;;;3.33;;
70467;SDS011;57934;51.532;7.684;2022-08-01T09:46:51;3.25;;;3.05;;
70467;SDS011;57934;51.532;7.684;2022-08-01T09:49:32;6.18;;;4.03;;
70467;SDS011;57934;51.532;7.684;2022-08-01T09:52:09;3.40;;;3.20;;
70467;SDS011;57934;51.532;7.684;2022-08-01T09:54:37;4.15;;;3.80;;
70467;SDS011;57934;51.532;7.684;2022-08-01T09:57:10;4.68;;;3.50;;
70467;SDS011;57934;51.532;7.684;2022-08-01T09:59:38;3.40;;;3.08;;
70467;SDS011;57934;51.532;7.684;2022-08-01T10:02:08;4.60;;;2.88;;
70467;SDS011;57934;51.532;7.684;2022-08-01T10:04:36;2.85;;;2.65;;
70467;SDS011;57934;51.532;7.684;2022-08-01T10:07:03;2.42;;;2.10;;
70467;SDS011;57934;51.532;7.684;2022-08-01T10:09:32;2.50;;;2.33;;
70467;SDS011;57934;51.532;7.684;2022-08-01T10:12:01;1.92;;;1.80;;
70467;SDS011;57934;51.532;7.684;2022-08-01T10:14:29;2.35;;;2.25;;
70467;SDS011;57934;51.532;7.684;2022-08-01T10:16:56;2.03;;;1.92;;
70467;SDS011;57934;51.532;7.684;2022-08-01T10:19:25;1.98;;;1.88;;
70467;SDS011;57934;51.532;7.684;2022-08-01T10:21:53;1.83;;;1.73;;
70467;SDS011;57934;51.532;7.684;2022-08-01T10:24:20;1.45;;;1.35;;
70467;SDS011;57934;51.532;7.684;2022-08-01T10:27:06;1.50;;;1.40;;
70467;SDS011;57934;51.532;7.684;2022-08-01T10:29:41;1.35;;;1.23;;
70467;SDS011;57934;51.532;7.684;2022-08-01T10:32:11;1.55;;;1.42;;
70467;SDS011;57934;51.532;7.684;2022-08-01T10:34:37;1.52;;;1.42;;
70467;SDS011;57934;51.532;7.684;2022-08-01T10:37:04;1.40;;;1.30;;
70467;SDS011;57934;51.532;7.684;2022-08-01T10:39:31;1.83;;;1.10;;
70467;SDS011;57934;51.532;7.684;2022-08-01T10:41:58;2.33;;;1.70;;
70467;SDS011;57934;51.532;7.684;2022-08-01T10:44:25;1.40;;;1.30;;
70467;SDS011;57934;51.532;7.684;2022-08-01T10:46:54;2.33;;;1.20;;
70467;SDS011;57934;51.532;7.684;2022-08-01T10:49:26;1.55;;;1.02;;
70467;SDS011;57934;51.532;7.684;2022-08-01T10:51:55;3.25;;;1.30;;
70467;SDS011;57934;51.532;7.684;2022-08-01T10:54:25;1.10;;;1.00;;
70467;SDS011;57934;51.532;7.684;2022-08-01T10:56:52;3.63;;;1.70;;
70467;SDS011;57934;51.532;7.684;2022-08-01T10:59:25;1.70;;;1.52;;
70467;SDS011;57934;51.532;7.684;2022-08-01T11:01:56;2.20;;;0.90;;
70467;SDS011;57934;51.532;7.684;2022-08-01T11:04:28;0.90;;;0.90;;
70467;SDS011;57934;51.532;7.684;2022-08-01T11:07:03;1.77;;;0.90;;
70467;SDS011;57934;51.532;7.684;2022-08-01T11:12:16;1.00;;;0.85;;
70467;SDS011;57934;51.532;7.684;2022-08-01T11:17:35;0.77;;;0.60;;
70467;SDS011;57934;51.532;7.684;2022-08-01T11:20:10;1.50;;;0.60;;
70467;SDS011;57934;51.532;7.684;2022-08-01T11:30:40;1.52;;;0.80;;
70467;SDS011;57934;51.532;7.684;2022-08-01T11:33:07;0.80;;;0.80;;
70467;SDS011;57934;51.532;7.684;2022-08-01T11:35:34;0.93;;;0.93;;
70467;SDS011;57934;51.532;7.684;2022-08-01T11:38:23;0.90;;;0.90;;
70467;SDS011;57934;51.532;7.684;2022-08-01T11:40:48;0.70;;;0.70;;
70467;SDS011;57934;51.532;7.684;2022-08-01T11:44:00;0.93;;;0.93;;
70467;SDS011;57934;51.532;7.684;2022-08-01T11:46:49;1.05;;;0.88;;
70467;SDS011;57934;51.532;7.684;2022-08-01T11:54:38;0.60;;;0.60;;
70467;SDS011;57934;51.532;7.684;2022-08-01T11:57:09;2.38;;;0.60;;
70467;SDS011;57934;51.532;7.684;2022-08-01T11:59:59;0.68;;;0.68;;
70467;SDS011;57934;51.532;7.684;2022-08-01T12:02:26;0.63;;;0.60;;
70467;SDS011;57934;51.532;7.684;2022-08-01T12:04:58;2.65;;;0.65;;
70467;SDS011;57934;51.532;7.684;2022-08-01T12:07:27;1.08;;;0.55;;
70467;SDS011;57934;51.532;7.684;2022-08-01T12:09:56;0.30;;;0.30;;
70467;SDS011;57934;51.532;7.684;2022-08-01T12:12:40;0.60;;;0.60;;
70467;SDS011;57934;51.532;7.684;2022-08-01T12:15:09;0.63;;;0.63;;
70467;SDS011;57934;51.532;7.684;2022-08-01T12:17:39;1.90;;;0.60;;
70467;SDS011;57934;51.532;7.684;2022-08-01T12:20:08;0.63;;;0.50;;
70467;SDS011;57934;51.532;7.684;2022-08-01T12:22:36;0.77;;;0.30;;
70467;SDS011;57934;51.532;7.684;2022-08-01T12:27:33;0.88;;;0.57;;
70467;SDS011;57934;51.532;7.684;2022-08-01T12:30:00;0.60;;;0.60;;
70467;SDS011;57934;51.532;7.684;2022-08-01T12:32:30;0.60;;;0.60;;
70467;SDS011;57934;51.532;7.684;2022-08-01T12:35:03;1.02;;;0.80;;
70467;SDS011;57934;51.532;7.684;2022-08-01T12:37:34;0.65;;;0.65;;
70467;SDS011;57934;51.532;7.684;2022-08-01T12:40:09;0.70;;;0.70;;
70467;SDS011;57934;51.532;7.684;2022-08-01T12:42:43;0.50;;;0.50;;
70467;SDS011;57934;51.532;7.684;2022-08-01T12:45:12;0.60;;;0.60;;
70467;SDS011;57934;51.532;7.684;2022-08-01T12:47:40;0.52;;;0.50;;
70467;SDS011;57934;51.532;7.684;2022-08-01T12:50:08;0.40;;;0.40;;
70467;SDS011;57934;51.532;7.684;2022-08-01T12:52:38;0.50;;;0.50;;
70467;SDS011;57934;51.532;7.684;2022-08-01T12:55:06;1.95;;;0.75;;
70467;SDS011;57934;51.532;7.684;2022-08-01T12:57:36;1.60;;;0.70;;
70467;SDS011;57934;51.532;7.684;2022-08-01T13:00:13;0.55;;;0.55;;
70467;SDS011;57934;51.532;7.684;2022-08-01T13:02:40;1.42;;;0.63;;
70467;SDS011;57934;51.532;7.684;2022-08-01T13:05:07;1.10;;;0.80;;
70467;SDS011;57934;51.532;7.684;2022-08-01T13:07:36;0.95;;;0.65;;
70467;SDS011;57934;51.532;7.684;2022-08-01T13:10:07;1.40;;;0.90;;
70467;SDS011;57934;51.532;7.684;2022-08-01T13:12:34;0.80;;;0.80;;
70467;SDS011;57934;51.532;7.684;2022-08-01T13:15:15;0.75;;;0.70;;
70467;SDS011;57934;51.532;7.684;2022-08-01T13:23:41;1.50;;;1.38;;
70467;SDS011;57934;51.532;7.684;2022-08-01T13:32:00;0.82;;;0.82;;
70467;SDS011;57934;51.532;7.684;2022-08-01T13:34:38;1.00;;;1.00;;
70467;SDS011;57934;51.532;7.684;2022-08-01T13:37:04;0.80;;;0.80;;
70467;SDS011;57934;51.532;7.684;2022-08-01T13:39:34;1.13;;;1.02;;
70467;SDS011;57934;51.532;7.684;2022-08-01T13:42:06;2.55;;;1.33;;
70467;SDS011;57934;51.532;7.684;2022-08-01T13:44:33;1.80;;;1.20;;
70467;SDS011;57934;51.532;7.684;2022-08-01T13:46:59;1.38;;;1.05;;
70467;SDS011;57934;51.532;7.684;2022-08-01T13:49:25;1.33;;;1.10;;
70467;SDS011;57934;51.532;7.684;2022-08-01T13:51:51;1.90;;;1.10;;
70467;SDS011;57934;51.532;7.684;2022-08-01T13:54:17;2.05;;;0.98;;
70467;SDS011;57934;51.532;7.684;2022-08-01T13:56:43;1.20;;;1.02;;
70467;SDS011;57934;51.532;7.684;2022-08-01T13:59:09;1.15;;;1.05;;
70467;SDS011;57934;51.532;7.684;2022-08-01T14:01:35;1.52;;;1.00;;
70467;SDS011;57934;51.532;7.684;2022-08-01T14:04:02;2.03;;;1.15;;
70467;SDS011;57934;51.532;7.684;2022-08-01T14:06:28;1.42;;;1.13;;
70467;SDS011;57934;51.532;7.684;2022-08-01T14:08:54;1.42;;;1.00;;
70467;SDS011;57934;51.532;7.684;2022-08-01T14:11:20;1.10;;;1.00;;
70467;SDS011;57934;51.532;7.684;2022-08-01T14:13:46;3.45;;;1.05;;
70467;SDS011;57934;51.532;7.684;2022-08-01T14:16:12;2.25;;;1.38;;
70467;SDS011;57934;51.532;7.684;2022-08-01T14:18:38;2.15;;;1.30;;
70467;SDS011;57934;51.532;7.684;2022-08-01T14:21:04;1.63;;;1.15;;
70467;SDS011;57934;51.532;7.684;2022-08-01T14:23:30;1.75;;;1.38;;
70467;SDS011;57934;51.532;7.684;2022-08-01T14:25:56;2.88;;;1.13;;
70467;SDS011;57934;51.532;7.684;2022-08-01T14:28:22;1.55;;;1.40;;
70467;SDS011;57934;51.532;7.684;2022-08-01T14:30:49;1.48;;;1.15;;
70467;SDS011;57934;51.532;7.684;2022-08-01T14:33:15;1.15;;;1.05;;
70467;SDS011;57934;51.532;7.684;2022-08-01T14:35:41;1.33;;;1.00;;
70467;SDS011;57934;51.532;7.684;2022-08-01T14:38:07;3.35;;;1.10;;
70467;SDS011;57934;51.532;7.684;2022-08-01T14:40:34;3.60;;;1.23;;
70467;SDS011;57934;51.532;7.684;2022-08-01T14:43:00;1.35;;;1.20;;
70467;SDS011;57934;51.532;7.684;2022-08-01T14:45:27;2.55;;;2.35;;
70467;SDS011;57934;51.532;7.684;2022-08-01T14:47:53;1.10;;;1.00;;
70467;SDS011;57934;51.532;7.684;2022-08-01T14:50:19;1.42;;;1.33;;
70467;SDS011;57934;51.532;7.684;2022-08-01T14:52:46;1.50;;;1.40;;
70467;SDS011;57934;51.532;7.684;2022-08-01T14:55:12;1.67;;;1.40;;
70467;SDS011;57934;51.532;7.684;2022-08-01T14:57:39;3.53;;;1.40;;
70467;SDS011;57934;51.532;7.684;2022-08-01T15:00:06;1.48;;;1.27;;
70467;SDS011;57934;51.532;7.684;2022-08-01T15:02:37;1.85;;;1.13;;
70467;SDS011;57934;51.532;7.684;2022-08-01T15:05:03;4.50;;;1.85;;
70467;SDS011;57934;51.532;7.684;2022-08-01T15:07:29;1.92;;;1.65;;
70467;SDS011;57934;51.532;7.684;2022-08-01T15:09:55;2.70;;;1.73;;
70467;SDS011;57934;51.532;7.684;2022-08-01T15:12:21;2.30;;;1.70;;
70467;SDS011;57934;51.532;7.684;2022-08-01T15:14:47;2.42;;;1.88;;
70467;SDS011;57934;51.532;7.684;2022-08-01T15:17:20;1.63;;;1.52;;
70467;SDS011;57934;51.532;7.684;2022-08-01T15:19:52;2.80;;;1.70;;
70467;SDS011;57934;51.532;7.684;2022-08-01T15:22:22;2.00;;;1.80;;
70467;SDS011;57934;51.532;7.684;2022-08-01T15:24:52;2.97;;;1.73;;
70467;SDS011;57934;51.532;7.684;2022-08-01T15:27:19;4.40;;;1.80;;
70467;SDS011;57934;51.532;7.684;2022-08-01T15:29:46;1.60;;;1.50;;
70467;SDS011;57934;51.532;7.684;2022-08-01T15:32:13;1.52;;;1.42;;